sensor_id;sensor_type;location;lat;lon;timestamp;pressure;altitude;pressure_sealevel;temperature;humidity
76297;BME280;65104;52.994;6.552;2023-02-18T00:01:14;102007.50;;;6.68;83.14
76297;BME280;65104;52.994;6.552;2023-02-18T00:03:40;102006.03;;;6.73;82.97
76297;BME280;65104;52.994;6.552;2023-02-18T00:06:16;102013.69;;;6.73;83.74
76297;BME280;65104;52.994;6.552;2023-02-18T00:08:42;102010.13;;;6.69;83.52
76297;BME280;65104;52.994;6.552;2023-02-18T00:11:08;102005.97;;;6.71;83.87
76297;BME280;65104;52.994;6.552;2023-02-18T00:13:34;102013.47;;;6.68;84.30
76297;BME280;65104;52.994;6.552;2023-02-18T00:16:04;102017.00;;;6.70;84.14
76297;BME280;65104;52.994;6.552;2023-02-18T00:18:30;102009.34;;;6.70;84.78
76297;BME280;65104;52.994;6.552;2023-02-18T00:20:56;102009.88;;;6.81;83.65
76297;BME280;65104;52.994;6.552;2023-02-18T00:23:21;102005.75;;;6.83;84.45
76297;BME280;65104;52.994;6.552;2023-02-18T00:25:47;101995.44;;;6.82;84.26
76297;BME280;65104;52.994;6.552;2023-02-18T00:28:12;101995.84;;;6.73;85.14
76297;BME280;65104;52.994;6.552;2023-02-18T00:30:42;101986.41;;;6.72;84.24
76297;BME280;65104;52.994;6.552;2023-02-18T00:33:08;101970.31;;;6.73;84.54
76297;BME280;65104;52.994;6.552;2023-02-18T00:35:34;101966.66;;;6.68;85.24
76297;BME280;65104;52.994;6.552;2023-02-18T00:37:59;101960.00;;;6.71;85.03
76297;BME280;65104;52.994;6.552;2023-02-18T00:40:25;101958.91;;;6.66;85.13
76297;BME280;65104;52.994;6.552;2023-02-18T00:42:50;101956.44;;;6.68;86.13
76297;BME280;65104;52.994;6.552;2023-02-18T00:45:16;101953.91;;;6.68;86.34
76297;BME280;65104;52.994;6.552;2023-02-18T00:47:41;101952.13;;;6.67;86.18
76297;BME280;65104;52.994;6.552;2023-02-18T00:50:08;101944.25;;;6.78;86.13
76297;BME280;65104;52.994;6.552;2023-02-18T00:52:34;101931.09;;;6.71;86.52
76297;BME280;65104;52.994;6.552;2023-02-18T00:54:59;101932.03;;;6.73;86.15
76297;BME280;65104;52.994;6.552;2023-02-18T00:57:25;101934.56;;;6.73;86.56
76297;BME280;65104;52.994;6.552;2023-02-18T00:59:50;101918.25;;;6.69;86.41
76297;BME280;65104;52.994;6.552;2023-02-18T01:02:15;101907.78;;;6.65;87.05
76297;BME280;65104;52.994;6.552;2023-02-18T01:04:41;101896.16;;;6.70;87.09
76297;BME280;65104;52.994;6.552;2023-02-18T01:07:06;101901.25;;;6.70;87.07
76297;BME280;65104;52.994;6.552;2023-02-18T01:09:34;101896.38;;;6.74;87.05
76297;BME280;65104;52.994;6.552;2023-02-18T01:11:59;101899.72;;;6.73;87.29
76297;BME280;65104;52.994;6.552;2023-02-18T01:14:25;101909.38;;;6.79;87.35
76297;BME280;65104;52.994;6.552;2023-02-18T01:16:50;101906.16;;;6.83;86.95
76297;BME280;65104;52.994;6.552;2023-02-18T01:19:15;101907.31;;;6.88;86.70
76297;BME280;65104;52.994;6.552;2023-02-18T01:21:41;101899.47;;;6.85;87.20
76297;BME280;65104;52.994;6.552;2023-02-18T01:24:06;101902.81;;;6.84;87.87
76297;BME280;65104;52.994;6.552;2023-02-18T01:26:32;101902.25;;;6.90;87.61
76297;BME280;65104;52.994;6.552;2023-02-18T01:28:57;101894.91;;;6.96;88.63
76297;BME280;65104;52.994;6.552;2023-02-18T01:31:23;101893.06;;;6.93;88.48
76297;BME280;65104;52.994;6.552;2023-02-18T01:33:48;101893.44;;;7.01;88.14
76297;BME280;65104;52.994;6.552;2023-02-18T01:36:15;101889.06;;;6.98;88.31
76297;BME280;65104;52.994;6.552;2023-02-18T01:38:41;101897.84;;;7.03;88.30
76297;BME280;65104;52.994;6.552;2023-02-18T01:41:06;101890.47;;;7.09;88.84
76297;BME280;65104;52.994;6.552;2023-02-18T01:43:32;101888.09;;;7.12;88.41
76297;BME280;65104;52.994;6.552;2023-02-18T01:46:11;101878.94;;;7.18;89.14
76297;BME280;65104;52.994;6.552;2023-02-18T01:54:19;101878.81;;;7.14;89.53
76297;BME280;65104;52.994;6.552;2023-02-18T01:56:25;101878.75;;;7.13;88.86
76297;BME280;65104;52.994;6.552;2023-02-18T01:58:52;101878.66;;;7.11;89.87
76297;BME280;65104;52.994;6.552;2023-02-18T02:01:19;101869.47;;;7.15;89.59
76297;BME280;65104;52.994;6.552;2023-02-18T02:03:45;101863.34;;;7.11;89.06
76297;BME280;65104;52.994;6.552;2023-02-18T02:06:19;101859.81;;;7.09;90.15
76297;BME280;65104;52.994;6.552;2023-02-18T02:08:46;101855.16;;;7.19;89.55
76297;BME280;65104;52.994;6.552;2023-02-18T02:14:15;101844.00;;;7.16;90.19
76297;BME280;65104;52.994;6.552;2023-02-18T02:22:21;101815.59;;;7.10;90.67
76297;BME280;65104;52.994;6.552;2023-02-18T02:25:19;101796.66;;;7.05;91.19
76297;BME280;65104;52.994;6.552;2023-02-18T02:35:59;101775.41;;;7.06;91.59
76297;BME280;65104;52.994;6.552;2023-02-18T02:44:20;101775.34;;;7.23;91.13
76297;BME280;65104;52.994;6.552;2023-02-18T02:46:50;101768.63;;;7.25;91.44
76297;BME280;65104;52.994;6.552;2023-02-18T02:49:31;101771.47;;;7.31;91.46
76297;BME280;65104;52.994;6.552;2023-02-18T02:52:12;101775.63;;;7.29;91.30
76297;BME280;65104;52.994;6.552;2023-02-18T02:54:40;101769.78;;;7.31;91.45
76297;BME280;65104;52.994;6.552;2023-02-18T03:00:00;101759.47;;;7.30;90.91
76297;BME280;65104;52.994;6.552;2023-02-18T03:05:13;101741.44;;;7.27;91.24
76297;BME280;65104;52.994;6.552;2023-02-18T03:11:08;101729.78;;;7.32;91.86
76297;BME280;65104;52.994;6.552;2023-02-18T03:13:56;101736.41;;;7.28;92.03
76297;BME280;65104;52.994;6.552;2023-02-18T03:16:35;101731.53;;;7.33;92.06
76297;BME280;65104;52.994;6.552;2023-02-18T03:19:31;101721.88;;;7.27;91.09
76297;BME280;65104;52.994;6.552;2023-02-18T03:22:02;101710.94;;;7.30;91.38
76297;BME280;65104;52.994;6.552;2023-02-18T03:24:32;101710.25;;;7.34;91.61
76297;BME280;65104;52.994;6.552;2023-02-18T03:27:05;101691.66;;;7.36;91.31
76297;BME280;65104;52.994;6.552;2023-02-18T03:29:32;101685.53;;;7.33;91.92
76297;BME280;65104;52.994;6.552;2023-02-18T03:32:02;101680.63;;;7.37;91.47
76297;BME280;65104;52.994;6.552;2023-02-18T03:34:32;101671.50;;;7.42;91.85
76297;BME280;65104;52.994;6.552;2023-02-18T03:37:00;101663.22;;;7.48;91.59
76297;BME280;65104;52.994;6.552;2023-02-18T03:39:28;101667.72;;;7.53;92.63
76297;BME280;65104;52.994;6.552;2023-02-18T03:41:54;101661.16;;;7.59;92.04
76297;BME280;65104;52.994;6.552;2023-02-18T03:44:20;101668.19;;;7.64;92.84
76297;BME280;65104;52.994;6.552;2023-02-18T03:46:46;101665.38;;;7.58;92.95
76297;BME280;65104;52.994;6.552;2023-02-18T03:49:12;101678.50;;;7.66;92.91
76297;BME280;65104;52.994;6.552;2023-02-18T03:51:38;101676.88;;;7.68;93.49
76297;BME280;65104;52.994;6.552;2023-02-18T03:54:04;101676.09;;;7.69;92.83
76297;BME280;65104;52.994;6.552;2023-02-18T03:56:32;101673.22;;;7.63;93.41
76297;BME280;65104;52.994;6.552;2023-02-18T03:58:58;101665.03;;;7.70;93.28
76297;BME280;65104;52.994;6.552;2023-02-18T04:01:23;101639.28;;;7.65;93.73
76297;BME280;65104;52.994;6.552;2023-02-18T04:03:49;101632.94;;;7.76;93.85
76297;BME280;65104;52.994;6.552;2023-02-18T04:06:14;101630.19;;;7.72;94.72
76297;BME280;65104;52.994;6.552;2023-02-18T04:08:41;101622.56;;;7.73;95.16
76297;BME280;65104;52.994;6.552;2023-02-18T04:11:06;101616.91;;;7.80;94.72
76297;BME280;65104;52.994;6.552;2023-02-18T04:13:32;101622.31;;;7.86;95.43
76297;BME280;65104;52.994;6.552;2023-02-18T04:15:57;101614.63;;;7.86;95.49
76297;BME280;65104;52.994;6.552;2023-02-18T04:18:23;101615.75;;;7.93;95.42
76297;BME280;65104;52.994;6.552;2023-02-18T04:20:48;101618.25;;;7.91;95.75
76297;BME280;65104;52.994;6.552;2023-02-18T04:23:14;101619.28;;;7.97;95.88
76297;BME280;65104;52.994;6.552;2023-02-18T04:25:39;101610.44;;;8.09;95.79
76297;BME280;65104;52.994;6.552;2023-02-18T04:28:05;101616.19;;;8.04;95.95
76297;BME280;65104;52.994;6.552;2023-02-18T04:30:31;101607.75;;;8.06;96.13
76297;BME280;65104;52.994;6.552;2023-02-18T04:32:56;101602.91;;;8.12;95.97
76297;BME280;65104;52.994;6.552;2023-02-18T04:35:22;101598.47;;;8.08;96.51
76297;BME280;65104;52.994;6.552;2023-02-18T04:37:47;101596.84;;;8.10;96.37
76297;BME280;65104;52.994;6.552;2023-02-18T04:40:13;101587.44;;;8.09;97.16
76297;BME280;65104;52.994;6.552;2023-02-18T04:42:38;101586.56;;;8.09;97.83
76297;BME280;65104;52.994;6.552;2023-02-18T04:45:04;101573.75;;;8.09;98.29
76297;BME280;65104;52.994;6.552;2023-02-18T04:47:30;101581.56;;;8.12;98.54
76297;BME280;65104;52.994;6.552;2023-02-18T04:49:55;101573.97;;;8.13;98.81
76297;BME280;65104;52.994;6.552;2023-02-18T04:52:20;101564.34;;;8.08;98.86
76297;BME280;65104;52.994;6.552;2023-02-18T04:54:46;101550.59;;;8.06;99.14
76297;BME280;65104;52.994;6.552;2023-02-18T04:57:11;101548.06;;;8.06;99.59
76297;BME280;65104;52.994;6.552;2023-02-18T04:59:37;101543.66;;;8.02;100.00
76297;BME280;65104;52.994;6.552;2023-02-18T05:02:03;101536.34;;;8.11;99.85
76297;BME280;65104;52.994;6.552;2023-02-18T05:04:29;101535.16;;;8.03;99.93
76297;BME280;65104;52.994;6.552;2023-02-18T05:06:54;101528.31;;;8.02;100.00
76297;BME280;65104;52.994;6.552;2023-02-18T05:09:20;101529.97;;;8.01;100.00
76297;BME280;65104;52.994;6.552;2023-02-18T05:11:46;101519.69;;;8.00;100.00
76297;BME280;65104;52.994;6.552;2023-02-18T05:14:12;101506.97;;;8.01;100.00
76297;BME280;65104;52.994;6.552;2023-02-18T05:16:38;101503.66;;;8.04;100.00
76297;BME280;65104;52.994;6.552;2023-02-18T05:19:04;101501.72;;;7.98;100.00
76297;BME280;65104;52.994;6.552;2023-02-18T05:21:30;101499.97;;;7.97;100.00
76297;BME280;65104;52.994;6.552;2023-02-18T05:23:55;101491.69;;;8.03;100.00
76297;BME280;65104;52.994;6.552;2023-02-18T05:26:21;101486.50;;;8.01;100.00
76297;BME280;65104;52.994;6.552;2023-02-18T05:28:49;101476.91;;;7.96;100.00
76297;BME280;65104;52.994;6.552;2023-02-18T05:31:14;101472.72;;;7.98;100.00
76297;BME280;65104;52.994;6.552;2023-02-18T05:33:40;101461.69;;;7.99;100.00
76297;BME280;65104;52.994;6.552;2023-02-18T05:36:06;101454.94;;;8.01;100.00
76297;BME280;65104;52.994;6.552;2023-02-18T05:38:31;101451.56;;;8.02;100.00
76297;BME280;65104;52.994;6.552;2023-02-18T05:41:06;101451.69;;;8.05;100.00
76297;BME280;65104;52.994;6.552;2023-02-18T05:43:31;101437.78;;;7.98;100.00
76297;BME280;65104;52.994;6.552;2023-02-18T05:46:17;101437.97;;;8.03;100.00
76297;BME280;65104;52.994;6.552;2023-02-18T05:48:42;101432.88;;;8.03;100.00
76297;BME280;65104;52.994;6.552;2023-02-18T05:51:08;101431.91;;;8.01;100.00
76297;BME280;65104;52.994;6.552;2023-02-18T05:53:33;101427.03;;;8.07;100.00
76297;BME280;65104;52.994;6.552;2023-02-18T05:55:58;101426.22;;;8.08;100.00
76297;BME280;65104;52.994;6.552;2023-02-18T05:58:24;101409.38;;;8.13;100.00
76297;BME280;65104;52.994;6.552;2023-02-18T06:00:49;101413.78;;;8.17;100.00
76297;BME280;65104;52.994;6.552;2023-02-18T06:03:15;101409.59;;;8.19;100.00
76297;BME280;65104;52.994;6.552;2023-02-18T06:05:40;101400.25;;;8.19;100.00
76297;BME280;65104;52.994;6.552;2023-02-18T06:08:06;101394.41;;;8.23;100.00
76297;BME280;65104;52.994;6.552;2023-02-18T06:10:31;101389.34;;;8.25;100.00
76297;BME280;65104;52.994;6.552;2023-02-18T06:12:56;101392.09;;;8.29;100.00
76297;BME280;65104;52.994;6.552;2023-02-18T06:15:22;101385.38;;;8.32;100.00
76297;BME280;65104;52.994;6.552;2023-02-18T06:17:47;101379.75;;;8.42;100.00
76297;BME280;65104;52.994;6.552;2023-02-18T06:20:13;101373.19;;;8.48;100.00
76297;BME280;65104;52.994;6.552;2023-02-18T06:22:38;101380.25;;;8.55;100.00
76297;BME280;65104;52.994;6.552;2023-02-18T06:25:04;101375.34;;;8.61;100.00
76297;BME280;65104;52.994;6.552;2023-02-18T06:27:30;101377.22;;;8.65;100.00
76297;BME280;65104;52.994;6.552;2023-02-18T06:29:56;101357.88;;;8.74;100.00
76297;BME280;65104;52.994;6.552;2023-02-18T06:32:21;101357.13;;;8.78;100.00
76297;BME280;65104;52.994;6.552;2023-02-18T06:34:46;101361.50;;;8.80;100.00
76297;BME280;65104;52.994;6.552;2023-02-18T06:37:12;101372.72;;;8.84;100.00
76297;BME280;65104;52.994;6.552;2023-02-18T06:39:38;101371.06;;;8.86;100.00
76297;BME280;65104;52.994;6.552;2023-02-18T06:42:07;101367.81;;;8.90;100.00
76297;BME280;65104;52.994;6.552;2023-02-18T06:44:32;101365.41;;;8.94;100.00
76297;BME280;65104;52.994;6.552;2023-02-18T06:46:58;101365.50;;;8.97;100.00
76297;BME280;65104;52.994;6.552;2023-02-18T06:49:24;101372.31;;;8.97;100.00
76297;BME280;65104;52.994;6.552;2023-02-18T06:51:49;101357.00;;;8.98;100.00
76297;BME280;65104;52.994;6.552;2023-02-18T06:54:15;101358.69;;;8.98;100.00
76297;BME280;65104;52.994;6.552;2023-02-18T06:56:40;101340.56;;;8.92;100.00
76297;BME280;65104;52.994;6.552;2023-02-18T06:59:05;101345.81;;;8.96;100.00
76297;BME280;65104;52.994;6.552;2023-02-18T07:01:32;101333.69;;;8.91;100.00
76297;BME280;65104;52.994;6.552;2023-02-18T07:03:58;101343.31;;;8.98;100.00
76297;BME280;65104;52.994;6.552;2023-02-18T07:06:23;101345.06;;;8.99;100.00
76297;BME280;65104;52.994;6.552;2023-02-18T07:08:49;101334.00;;;9.00;100.00
76297;BME280;65104;52.994;6.552;2023-02-18T07:11:14;101332.50;;;9.07;100.00
76297;BME280;65104;52.994;6.552;2023-02-18T07:13:39;101324.03;;;9.09;100.00
76297;BME280;65104;52.994;6.552;2023-02-18T07:16:05;101327.53;;;9.11;100.00
76297;BME280;65104;52.994;6.552;2023-02-18T07:18:31;101327.78;;;9.19;100.00
76297;BME280;65104;52.994;6.552;2023-02-18T07:20:56;101316.66;;;9.18;100.00
76297;BME280;65104;52.994;6.552;2023-02-18T07:23:21;101310.75;;;9.21;100.00
76297;BME280;65104;52.994;6.552;2023-02-18T07:25:47;101315.03;;;9.22;100.00
76297;BME280;65104;52.994;6.552;2023-02-18T07:28:12;101317.66;;;9.23;100.00
76297;BME280;65104;52.994;6.552;2023-02-18T07:30:38;101305.59;;;9.19;100.00
76297;BME280;65104;52.994;6.552;2023-02-18T07:33:03;101314.09;;;9.18;100.00
76297;BME280;65104;52.994;6.552;2023-02-18T07:35:28;101318.47;;;9.22;100.00
76297;BME280;65104;52.994;6.552;2023-02-18T07:37:54;101334.69;;;9.21;100.00
76297;BME280;65104;52.994;6.552;2023-02-18T07:40:21;101322.59;;;9.17;100.00
76297;BME280;65104;52.994;6.552;2023-02-18T07:42:48;101325.22;;;9.19;100.00
76297;BME280;65104;52.994;6.552;2023-02-18T07:45:13;101321.09;;;9.24;100.00
76297;BME280;65104;52.994;6.552;2023-02-18T07:47:39;101336.41;;;9.22;100.00
76297;BME280;65104;52.994;6.552;2023-02-18T07:50:07;101326.16;;;9.22;100.00
76297;BME280;65104;52.994;6.552;2023-02-18T07:52:33;101326.91;;;9.18;100.00
76297;BME280;65104;52.994;6.552;2023-02-18T07:54:58;101332.09;;;9.20;100.00
76297;BME280;65104;52.994;6.552;2023-02-18T07:57:24;101328.78;;;9.24;99.31
76297;BME280;65104;52.994;6.552;2023-02-18T07:59:49;101307.34;;;9.22;99.49
76297;BME280;65104;52.994;6.552;2023-02-18T08:02:23;101331.28;;;9.22;99.61
76297;BME280;65104;52.994;6.552;2023-02-18T08:04:49;101310.59;;;9.16;99.71
76297;BME280;65104;52.994;6.552;2023-02-18T08:07:16;101306.34;;;9.17;99.29
76297;BME280;65104;52.994;6.552;2023-02-18T08:09:42;101318.16;;;9.12;99.48
76297;BME280;65104;52.994;6.552;2023-02-18T08:12:08;101300.22;;;9.12;99.04
76297;BME280;65104;52.994;6.552;2023-02-18T08:14:33;101312.19;;;9.13;98.98
76297;BME280;65104;52.994;6.552;2023-02-18T08:16:59;101311.44;;;9.15;98.40
76297;BME280;65104;52.994;6.552;2023-02-18T08:19:25;101312.34;;;9.17;98.03
76297;BME280;65104;52.994;6.552;2023-02-18T08:21:50;101324.44;;;9.21;97.72
76297;BME280;65104;52.994;6.552;2023-02-18T08:24:16;101300.34;;;9.16;98.43
76297;BME280;65104;52.994;6.552;2023-02-18T08:26:41;101312.34;;;9.17;98.06
76297;BME280;65104;52.994;6.552;2023-02-18T08:29:06;101308.00;;;9.15;97.63
76297;BME280;65104;52.994;6.552;2023-02-18T08:31:32;101308.78;;;9.12;98.65
76297;BME280;65104;52.994;6.552;2023-02-18T08:33:58;101299.53;;;9.17;97.51
76297;BME280;65104;52.994;6.552;2023-02-18T08:36:26;101310.66;;;9.18;97.33
76297;BME280;65104;52.994;6.552;2023-02-18T08:38:52;101310.56;;;9.15;97.75
76297;BME280;65104;52.994;6.552;2023-02-18T08:41:17;101312.34;;;9.17;97.98
76297;BME280;65104;52.994;6.552;2023-02-18T08:43:43;101319.09;;;9.15;97.58
76297;BME280;65104;52.994;6.552;2023-02-18T08:46:09;101308.84;;;9.15;98.08
76297;BME280;65104;52.994;6.552;2023-02-18T08:48:34;101324.19;;;9.14;98.01
76297;BME280;65104;52.994;6.552;2023-02-18T08:51:10;101311.19;;;9.08;97.92
76297;BME280;65104;52.994;6.552;2023-02-18T08:53:35;101317.06;;;9.05;98.68
76297;BME280;65104;52.994;6.552;2023-02-18T08:56:05;101303.44;;;9.06;98.74
76297;BME280;65104;52.994;6.552;2023-02-18T08:58:30;101313.69;;;9.06;98.62
76297;BME280;65104;52.994;6.552;2023-02-18T09:01:00;101306.81;;;9.05;98.05
76297;BME280;65104;52.994;6.552;2023-02-18T09:03:26;101307.56;;;9.01;98.72
76297;BME280;65104;52.994;6.552;2023-02-18T09:05:51;101308.56;;;9.06;98.37
76297;BME280;65104;52.994;6.552;2023-02-18T09:08:17;101312.16;;;9.11;98.76
76297;BME280;65104;52.994;6.552;2023-02-18T09:10:43;101308.50;;;9.03;99.51
76297;BME280;65104;52.994;6.552;2023-02-18T09:13:09;101287.78;;;8.97;99.43
76297;BME280;65104;52.994;6.552;2023-02-18T09:15:34;101300.44;;;8.92;99.66
76297;BME280;65104;52.994;6.552;2023-02-18T09:18:00;101302.97;;;8.91;99.43
76297;BME280;65104;52.994;6.552;2023-02-18T09:20:26;101309.72;;;8.89;99.61
76297;BME280;65104;52.994;6.552;2023-02-18T09:22:51;101305.41;;;8.88;99.80
76297;BME280;65104;52.994;6.552;2023-02-18T09:25:17;101307.03;;;8.86;99.84
76297;BME280;65104;52.994;6.552;2023-02-18T09:27:42;101322.47;;;8.87;100.00
76297;BME280;65104;52.994;6.552;2023-02-18T09:30:08;101319.84;;;8.86;99.71
76297;BME280;65104;52.994;6.552;2023-02-18T09:32:34;101330.88;;;8.83;100.00
76297;BME280;65104;52.994;6.552;2023-02-18T09:35:00;101318.13;;;8.85;99.80
76297;BME280;65104;52.994;6.552;2023-02-18T09:37:26;101312.13;;;8.84;99.95
76297;BME280;65104;52.994;6.552;2023-02-18T09:39:53;101329.91;;;8.80;100.00
76297;BME280;65104;52.994;6.552;2023-02-18T09:42:19;101316.28;;;8.81;100.00
76297;BME280;65104;52.994;6.552;2023-02-18T09:44:51;101323.03;;;8.79;100.00
76297;BME280;65104;52.994;6.552;2023-02-18T09:50:00;101322.31;;;8.83;100.00
76297;BME280;65104;52.994;6.552;2023-02-18T09:52:30;101336.69;;;8.79;100.00
76297;BME280;65104;52.994;6.552;2023-02-18T09:54:56;101323.13;;;8.82;99.82
76297;BME280;65104;52.994;6.552;2023-02-18T09:59:51;101329.91;;;8.80;99.81
76297;BME280;65104;52.994;6.552;2023-02-18T10:02:21;101343.69;;;8.83;99.83
76297;BME280;65104;52.994;6.552;2023-02-18T10:04:47;101346.25;;;8.83;100.00
76297;BME280;65104;52.994;6.552;2023-02-18T10:07:45;101341.13;;;8.83;99.90
76297;BME280;65104;52.994;6.552;2023-02-18T10:10:32;101347.19;;;8.85;98.70
76297;BME280;65104;52.994;6.552;2023-02-18T10:13:00;101323.56;;;8.94;98.43
76297;BME280;65104;52.994;6.552;2023-02-18T10:15:29;101339.31;;;9.06;97.98
76297;BME280;65104;52.994;6.552;2023-02-18T10:17:56;101329.31;;;9.14;97.49
76297;BME280;65104;52.994;6.552;2023-02-18T10:20:26;101340.34;;;9.11;96.91
76297;BME280;65104;52.994;6.552;2023-02-18T10:22:54;101339.47;;;9.11;95.55
76297;BME280;65104;52.994;6.552;2023-02-18T10:25:22;101335.34;;;9.16;95.84
76297;BME280;65104;52.994;6.552;2023-02-18T10:27:51;101341.34;;;9.16;94.60
76297;BME280;65104;52.994;6.552;2023-02-18T10:30:23;101344.16;;;9.24;94.87
76297;BME280;65104;52.994;6.552;2023-02-18T10:32:58;101330.53;;;9.25;94.56
76297;BME280;65104;52.994;6.552;2023-02-18T10:38:19;101343.69;;;9.35;93.90
76297;BME280;65104;52.994;6.552;2023-02-18T10:41:07;101326.66;;;9.37;93.85
76297;BME280;65104;52.994;6.552;2023-02-18T10:44:36;101349.72;;;9.37;94.21
76297;BME280;65104;52.994;6.552;2023-02-18T10:46:44;101357.44;;;9.37;93.14
76297;BME280;65104;52.994;6.552;2023-02-18T10:52:18;101348.78;;;9.62;92.20
76297;BME280;65104;52.994;6.552;2023-02-18T10:57:19;101346.03;;;9.83;92.10
76297;BME280;65104;52.994;6.552;2023-02-18T11:02:29;101351.03;;;9.80;91.60
76297;BME280;65104;52.994;6.552;2023-02-18T11:04:58;101353.72;;;9.83;91.38
76297;BME280;65104;52.994;6.552;2023-02-18T11:07:29;101364.09;;;9.88;91.51
76297;BME280;65104;52.994;6.552;2023-02-18T11:09:57;101370.25;;;9.94;91.28
76297;BME280;65104;52.994;6.552;2023-02-18T11:12:25;101372.94;;;9.97;91.21
76297;BME280;65104;52.994;6.552;2023-02-18T11:17:34;101374.25;;;10.13;91.00
76297;BME280;65104;52.994;6.552;2023-02-18T11:20:19;101371.16;;;10.23;89.72
76297;BME280;65104;52.994;6.552;2023-02-18T11:22:44;101373.16;;;10.33;88.27
76297;BME280;65104;52.994;6.552;2023-02-18T11:25:24;101374.38;;;10.46;89.41
76297;BME280;65104;52.994;6.552;2023-02-18T11:27:57;101398.44;;;10.49;88.11
76297;BME280;65104;52.994;6.552;2023-02-18T11:30:30;101381.94;;;10.41;88.51
76297;BME280;65104;52.994;6.552;2023-02-18T11:33:02;101390.56;;;10.43;88.48
76297;BME280;65104;52.994;6.552;2023-02-18T11:35:31;101394.81;;;10.43;89.21
76297;BME280;65104;52.994;6.552;2023-02-18T11:37:58;101386.09;;;10.36;88.42
76297;BME280;65104;52.994;6.552;2023-02-18T11:40:32;101384.50;;;10.41;88.65
76297;BME280;65104;52.994;6.552;2023-02-18T11:43:09;101390.31;;;10.34;88.96
76297;BME280;65104;52.994;6.552;2023-02-18T11:45:38;101397.22;;;10.37;88.33
76297;BME280;65104;52.994;6.552;2023-02-18T11:48:15;101390.41;;;10.37;88.36
76297;BME280;65104;52.994;6.552;2023-02-18T11:50:41;101391.03;;;10.30;87.86
76297;BME280;65104;52.994;6.552;2023-02-18T11:53:37;101392.09;;;10.38;88.00
76297;BME280;65104;52.994;6.552;2023-02-18T11:56:05;101391.34;;;10.41;88.41
76297;BME280;65104;52.994;6.552;2023-02-18T11:58:44;101410.22;;;10.43;87.79
76297;BME280;65104;52.994;6.552;2023-02-18T12:04:05;101396.69;;;10.48;86.73
76297;BME280;65104;52.994;6.552;2023-02-18T12:06:37;101403.50;;;10.46;87.16
76297;BME280;65104;52.994;6.552;2023-02-18T12:09:08;101404.38;;;10.48;87.66
76297;BME280;65104;52.994;6.552;2023-02-18T12:11:42;101394.94;;;10.47;87.74
76297;BME280;65104;52.994;6.552;2023-02-18T12:14:18;101410.44;;;10.50;87.03
76297;BME280;65104;52.994;6.552;2023-02-18T12:22:17;101412.34;;;10.58;87.25
76297;BME280;65104;52.994;6.552;2023-02-18T12:25:00;101406.38;;;10.59;87.03
76297;BME280;65104;52.994;6.552;2023-02-18T12:27:42;101404.78;;;10.62;86.59
76297;BME280;65104;52.994;6.552;2023-02-18T12:33:07;101416.81;;;10.65;86.84
76297;BME280;65104;52.994;6.552;2023-02-18T12:57:48;101418.91;;;11.11;84.51
76297;BME280;65104;52.994;6.552;2023-02-18T13:00:43;101420.78;;;11.16;84.04
76297;BME280;65104;52.994;6.552;2023-02-18T13:14:03;101429.41;;;11.53;81.35
76297;BME280;65104;52.994;6.552;2023-02-18T13:16:33;101427.25;;;11.35;82.95
76297;BME280;65104;52.994;6.552;2023-02-18T13:21:45;101438.19;;;11.26;83.41
76297;BME280;65104;52.994;6.552;2023-02-18T13:24:24;101436.91;;;11.11;82.30
76297;BME280;65104;52.994;6.552;2023-02-18T13:26:55;101447.13;;;11.08;82.88
76297;BME280;65104;52.994;6.552;2023-02-18T13:29:29;101448.22;;;11.17;83.27
76297;BME280;65104;52.994;6.552;2023-02-18T13:32:11;101436.66;;;11.00;82.77
76297;BME280;65104;52.994;6.552;2023-02-18T13:40:55;101449.09;;;10.86;83.31
76297;BME280;65104;52.994;6.552;2023-02-18T13:43:30;101442.66;;;11.02;83.93
76297;BME280;65104;52.994;6.552;2023-02-18T13:46:18;101449.44;;;10.99;83.57
76297;BME280;65104;52.994;6.552;2023-02-18T13:49:05;101445.09;;;10.96;83.40
76297;BME280;65104;52.994;6.552;2023-02-18T13:51:51;101443.63;;;11.06;83.47
76297;BME280;65104;52.994;6.552;2023-02-18T13:54:27;101446.06;;;11.00;82.19
76297;BME280;65104;52.994;6.552;2023-02-18T13:57:00;101445.72;;;11.20;82.24
76297;BME280;65104;52.994;6.552;2023-02-18T14:10:01;101445.44;;;11.08;82.14
76297;BME280;65104;52.994;6.552;2023-02-18T14:14:57;101449.19;;;10.89;82.69
76297;BME280;65104;52.994;6.552;2023-02-18T14:22:32;101461.66;;;10.76;83.17
76297;BME280;65104;52.994;6.552;2023-02-18T14:25:34;101446.19;;;10.74;82.62
76297;BME280;65104;52.994;6.552;2023-02-18T14:28:03;101463.44;;;10.78;82.17
76297;BME280;65104;52.994;6.552;2023-02-18T14:30:47;101461.78;;;10.80;81.61
76297;BME280;65104;52.994;6.552;2023-02-18T14:33:17;101471.31;;;10.84;82.47
76297;BME280;65104;52.994;6.552;2023-02-18T14:35:51;101474.06;;;10.90;81.71
76297;BME280;65104;52.994;6.552;2023-02-18T14:52:05;101489.00;;;10.74;81.49
76297;BME280;65104;52.994;6.552;2023-02-18T14:54:35;101481.13;;;10.68;81.64
76297;BME280;65104;52.994;6.552;2023-02-18T14:57:06;101486.16;;;10.65;82.21
76297;BME280;65104;52.994;6.552;2023-02-18T14:59:36;101481.16;;;10.69;82.70
76297;BME280;65104;52.994;6.552;2023-02-18T15:02:16;101486.09;;;10.62;82.98
76297;BME280;65104;52.994;6.552;2023-02-18T15:04:42;101502.28;;;10.59;82.51
76297;BME280;65104;52.994;6.552;2023-02-18T15:07:10;101497.97;;;10.58;82.01
76297;BME280;65104;52.994;6.552;2023-02-18T15:09:43;101501.34;;;10.57;82.77
76297;BME280;65104;52.994;6.552;2023-02-18T15:12:15;101503.69;;;10.49;82.05
76297;BME280;65104;52.994;6.552;2023-02-18T15:14:44;101513.03;;;10.46;82.16
76297;BME280;65104;52.994;6.552;2023-02-18T15:17:18;101516.31;;;10.42;83.11
76297;BME280;65104;52.994;6.552;2023-02-18T15:19:52;101527.34;;;10.38;82.17
76297;BME280;65104;52.994;6.552;2023-02-18T15:22:23;101528.94;;;10.34;82.78
76297;BME280;65104;52.994;6.552;2023-02-18T15:24:50;101529.81;;;10.35;81.97